Anton, CO

5:39 PM MDT on July 10, 2014 (GMT -0600)
Akron-Washington County (KAKO) Elev 4662 ft | 40.17 °N, 103.21 °W | Change Station

Current weather conditions updated 46 minutes ago

Clear
Clear
93 °F
Feels Like 93 °F
N
20
Wind Variable Wind from South
Gusts 26 mph

Tomorrow is forecast to be nearly the same temperature as today. Isolated thunderstorms tomorrow night.

Today
High -- | Low -- °F
--% Chance of Precip.
Yesterday
High -- | Low -- °F
Precip. -- in
5:34 AM 8:22 PM
Waxing Gibbous, 97% visible
Pressure 29.74 in
Visibility 10.0 miles
Clouds Clear
Dew Point 48 °F
Humidity 21%
Rainfall 0.00 in
Snow Depth Not available.
UV 5 out of 12
Pollen 5.80 out of 12
Air Quality Not available.
Flu Activity Local Activity
METAR KAKO 102253Z AUTO 17017G23KT 10SM CLR 34/09 A2995 RMK AO2 SLP070 T03390089

More Conditions Fewer Conditions

Pressure 29.74 in
Visibility 10.0 miles
Clouds Clear
Dew Point 48 °F
Humidity 21%
Rainfall 0.00 in
Snow Depth Not available.
UV 5 out of 12
Pollen 5.80 out of 12
Air Quality Not available.
Flu Activity Local Activity
METAR KAKO 102253Z AUTO 17017G23KT 10SM CLR 34/09 A2995 RMK AO2 SLP070 T03390089

More Conditions Fewer Conditions

10-Day Weather Forecast

Almanac

Astronomy

Jul. 10, 2014 Rise Set
Actual Time 5:34 AM MDT 8:22 PM MDT
Civil Twilight 5:02 AM MDT 8:54 PM MDT
Nautical Twilight 4:21 AM MDT 9:34 PM MDT
Astronomical Twilight 3:35 AM MDT 10:20 PM MDT
Moon 6:37 PM MDT 3:47 AM MDT
Length of Visible Light 15h 52m
Length of Day
14h 48m
Tomorrow will be 1m 8s shorter.
Waxing Gibbous, 97% of the Moon is Illuminated
Today
Waxing Gibbous
Jul 12
Full
Jul 18
Last Quarter
Jul 26
New
Aug 3
First Quarter

Today's Extremes

State Highs State Lows

Community

WunderPhotos

Upload Photos

1,732,296 photos uploaded!

Nearby

Snow Depth

Station Depth Elevation
Niwot 0 in 9910 ft
University Camp 0 in 10300 ft
Berthoud Summit 0 in 11300 ft
Grizzly Peak 4 in 11100 ft
Jones Pass 0 in 10400 ft

Earthquake Activity

City Distance Mag. Time & Date
No recent earthquake activity has been reported nearby.
Minimum magnitude displayed is 2.5.

Coastal Water Temperatures

Place Temperature
No Stations Reporting

Nearby Weather Stations

Station Location Temp. Heat Index Dew Point Humidity Wind Precip. Elev Updated Type
Cope, Colorado, Cope, CO 94.3 °F 95 °F 62 °F 35% ESE  at  2.7 mph - / hr 4423 ft 5:34 PM MDT Normal

Show More Stations Show Fewer Stations